sensor_id;sensor_type;location;lat;lon;timestamp;pressure;altitude;pressure_sealevel;temperature;humidity
48848;BME280;36611;51.638;5.784;2023-06-22T00:02:26;101797.97;;;31.15;36.25
48848;BME280;36611;51.638;5.784;2023-06-22T00:04:52;101801.59;;;31.16;36.25
48848;BME280;36611;51.638;5.784;2023-06-22T00:07:19;101797.97;;;31.15;36.21
48848;BME280;36611;51.638;5.784;2023-06-22T00:09:45;101795.19;;;31.15;36.13
48848;BME280;36611;51.638;5.784;2023-06-22T00:12:12;101797.13;;;31.15;36.03
48848;BME280;36611;51.638;5.784;2023-06-22T00:14:38;101790.69;;;31.14;36.28
48848;BME280;36611;51.638;5.784;2023-06-22T00:17:05;101796.25;;;31.14;36.43
48848;BME280;36611;51.638;5.784;2023-06-22T00:19:32;101801.59;;;31.16;36.50
48848;BME280;36611;51.638;5.784;2023-06-22T00:22:02;101805.44;;;31.15;36.17
48848;BME280;36611;51.638;5.784;2023-06-22T00:24:30;101796.25;;;31.14;36.32
48848;BME280;36611;51.638;5.784;2023-06-22T00:26:56;101803.72;;;31.14;36.10
48848;BME280;36611;51.638;5.784;2023-06-22T00:29:23;101798.16;;;31.14;36.14
48848;BME280;36611;51.638;5.784;2023-06-22T00:31:51;101806.50;;;31.14;36.09
48848;BME280;36611;51.638;5.784;2023-06-22T00:34:18;101795.41;;;31.14;36.14
48848;BME280;36611;51.638;5.784;2023-06-22T00:36:44;101798.16;;;31.14;36.26
48848;BME280;36611;51.638;5.784;2023-06-22T00:39:11;101798.16;;;31.14;36.17
48848;BME280;36611;51.638;5.784;2023-06-22T00:41:38;101800.94;;;31.14;36.20
48848;BME280;36611;51.638;5.784;2023-06-22T00:44:05;101804.78;;;31.13;35.99
48848;BME280;36611;51.638;5.784;2023-06-22T00:46:33;101803.72;;;31.14;36.19
48848;BME280;36611;51.638;5.784;2023-06-22T00:49:00;101800.94;;;31.14;36.31
48848;BME280;36611;51.638;5.784;2023-06-22T00:51:27;101792.63;;;31.14;36.33
48848;BME280;36611;51.638;5.784;2023-06-22T00:53:54;101790.91;;;31.13;36.08
48848;BME280;36611;51.638;5.784;2023-06-22T00:56:22;101796.47;;;31.13;36.33
48848;BME280;36611;51.638;5.784;2023-06-22T00:58:51;101790.06;;;31.12;36.35
48848;BME280;36611;51.638;5.784;2023-06-22T01:01:19;101790.06;;;31.12;36.07
48848;BME280;36611;51.638;5.784;2023-06-22T01:03:51;101781.75;;;31.12;36.20
48848;BME280;36611;51.638;5.784;2023-06-22T01:06:32;101785.38;;;31.13;36.32
48848;BME280;36611;51.638;5.784;2023-06-22T01:09:22;101780.03;;;31.11;36.17
48848;BME280;36611;51.638;5.784;2023-06-22T01:11:57;101775.56;;;31.10;36.20
48848;BME280;36611;51.638;5.784;2023-06-22T01:17:26;101775.78;;;31.09;36.21
48848;BME280;36611;51.638;5.784;2023-06-22T01:19:57;101779.41;;;31.09;36.08
48848;BME280;36611;51.638;5.784;2023-06-22T01:22:27;101776.63;;;31.09;36.16
48848;BME280;36611;51.638;5.784;2023-06-22T01:25:20;101777.50;;;31.10;36.04
48848;BME280;36611;51.638;5.784;2023-06-22T01:30:42;101771.31;;;31.08;35.94
48848;BME280;36611;51.638;5.784;2023-06-22T01:33:11;101777.72;;;31.08;36.19
48848;BME280;36611;51.638;5.784;2023-06-22T01:35:39;101778.56;;;31.09;36.04
48848;BME280;36611;51.638;5.784;2023-06-22T01:38:07;101782.41;;;31.08;36.22
48848;BME280;36611;51.638;5.784;2023-06-22T01:40:35;101779.63;;;31.08;36.36
48848;BME280;36611;51.638;5.784;2023-06-22T01:43:03;101775.78;;;31.09;36.14
48848;BME280;36611;51.638;5.784;2023-06-22T01:45:30;101772.16;;;31.08;36.16
48848;BME280;36611;51.638;5.784;2023-06-22T01:47:57;101770.25;;;31.09;36.32
48848;BME280;36611;51.638;5.784;2023-06-22T01:50:24;101761.91;;;31.09;36.42
48848;BME280;36611;51.638;5.784;2023-06-22T01:52:51;101771.31;;;31.08;35.79
48848;BME280;36611;51.638;5.784;2023-06-22T01:55:18;101765.75;;;31.08;36.14
48848;BME280;36611;51.638;5.784;2023-06-22T01:57:48;101762.97;;;31.08;36.35
48848;BME280;36611;51.638;5.784;2023-06-22T02:00:20;101761.91;;;31.09;36.40
48848;BME280;36611;51.638;5.784;2023-06-22T02:02:59;101763.84;;;31.08;36.10
48848;BME280;36611;51.638;5.784;2023-06-22T02:05:31;101764.91;;;31.07;36.50
48848;BME280;36611;51.638;5.784;2023-06-22T02:08:22;101756.59;;;31.07;36.19
48848;BME280;36611;51.638;5.784;2023-06-22T02:10:50;101763.22;;;31.06;36.12
48848;BME280;36611;51.638;5.784;2023-06-22T02:13:19;101765.97;;;31.06;36.30
48848;BME280;36611;51.638;5.784;2023-06-22T02:15:47;101759.34;;;31.07;36.16
48848;BME280;36611;51.638;5.784;2023-06-22T02:18:13;101760.44;;;31.06;36.06
48848;BME280;36611;51.638;5.784;2023-06-22T02:20:40;101765.13;;;31.06;36.62
48848;BME280;36611;51.638;5.784;2023-06-22T02:23:07;101764.06;;;31.07;36.05
48848;BME280;36611;51.638;5.784;2023-06-22T02:25:35;101762.34;;;31.06;36.48
48848;BME280;36611;51.638;5.784;2023-06-22T02:28:02;101757.66;;;31.06;36.39
48848;BME280;36611;51.638;5.784;2023-06-22T02:30:29;101758.50;;;31.07;36.28
48848;BME280;36611;51.638;5.784;2023-06-22T02:32:56;101746.56;;;31.06;36.25
48848;BME280;36611;51.638;5.784;2023-06-22T02:35:27;101749.34;;;31.06;36.09
48848;BME280;36611;51.638;5.784;2023-06-22T02:37:59;101743.78;;;31.06;36.42
48848;BME280;36611;51.638;5.784;2023-06-22T02:40:26;101751.25;;;31.06;36.22
48848;BME280;36611;51.638;5.784;2023-06-22T02:42:56;101749.56;;;31.05;36.07
48848;BME280;36611;51.638;5.784;2023-06-22T02:45:24;101743.16;;;31.04;36.45
48848;BME280;36611;51.638;5.784;2023-06-22T02:47:51;101733.75;;;31.05;36.21
48848;BME280;36611;51.638;5.784;2023-06-22T02:50:18;101739.31;;;31.05;36.25
48848;BME280;36611;51.638;5.784;2023-06-22T02:52:45;101733.75;;;31.05;36.28
48848;BME280;36611;51.638;5.784;2023-06-22T02:55:12;101735.69;;;31.05;36.26
48848;BME280;36611;51.638;5.784;2023-06-22T02:57:39;101731.84;;;31.06;36.18
48848;BME280;36611;51.638;5.784;2023-06-22T03:00:10;101732.06;;;31.04;36.12
48848;BME280;36611;51.638;5.784;2023-06-22T03:02:45;101726.50;;;31.04;36.31
48848;BME280;36611;51.638;5.784;2023-06-22T03:05:13;101731.22;;;31.04;36.37
48848;BME280;36611;51.638;5.784;2023-06-22T03:07:41;101732.06;;;31.04;36.18
48848;BME280;36611;51.638;5.784;2023-06-22T03:10:09;101725.66;;;31.04;36.24
48848;BME280;36611;51.638;5.784;2023-06-22T03:12:40;101727.38;;;31.05;36.12
48848;BME280;36611;51.638;5.784;2023-06-22T03:15:09;101727.59;;;31.03;36.23
48848;BME280;36611;51.638;5.784;2023-06-22T03:17:37;101722.03;;;31.03;36.25
48848;BME280;36611;51.638;5.784;2023-06-22T03:20:07;101716.47;;;31.03;36.32
48848;BME280;36611;51.638;5.784;2023-06-22T03:22:39;101709.00;;;31.04;36.13
48848;BME280;36611;51.638;5.784;2023-06-22T03:25:08;101697.28;;;31.02;36.19
48848;BME280;36611;51.638;5.784;2023-06-22T03:27:42;101709.25;;;31.02;36.24
48848;BME280;36611;51.638;5.784;2023-06-22T03:30:11;101711.16;;;31.02;36.37
48848;BME280;36611;51.638;5.784;2023-06-22T03:32:38;101712.88;;;31.03;36.31
48848;BME280;36611;51.638;5.784;2023-06-22T03:35:06;101711.16;;;31.02;36.38
48848;BME280;36611;51.638;5.784;2023-06-22T03:37:35;101713.94;;;31.02;36.41
48848;BME280;36611;51.638;5.784;2023-06-22T03:40:02;101703.91;;;31.01;36.26
48848;BME280;36611;51.638;5.784;2023-06-22T03:42:33;101704.75;;;31.01;36.38
48848;BME280;36611;51.638;5.784;2023-06-22T03:45:04;101705.84;;;31.00;36.50
48848;BME280;36611;51.638;5.784;2023-06-22T03:47:31;101707.53;;;31.01;36.09
48848;BME280;36611;51.638;5.784;2023-06-22T03:49:58;101695.59;;;31.01;36.13
48848;BME280;36611;51.638;5.784;2023-06-22T03:52:24;101703.06;;;31.00;36.28
48848;BME280;36611;51.638;5.784;2023-06-22T03:54:51;101704.75;;;31.01;36.02
48848;BME280;36611;51.638;5.784;2023-06-22T03:57:18;101708.59;;;31.00;36.30
48848;BME280;36611;51.638;5.784;2023-06-22T03:59:45;101707.75;;;30.99;36.26
48848;BME280;36611;51.638;5.784;2023-06-22T04:02:11;101703.06;;;31.00;36.17
48848;BME280;36611;51.638;5.784;2023-06-22T04:04:38;101696.66;;;30.99;36.24
48848;BME280;36611;51.638;5.784;2023-06-22T04:07:05;101693.03;;;30.99;36.08
48848;BME280;36611;51.638;5.784;2023-06-22T04:09:32;101694.75;;;31.00;36.32
48848;BME280;36611;51.638;5.784;2023-06-22T04:11:59;101691.13;;;30.99;36.32
48848;BME280;36611;51.638;5.784;2023-06-22T04:14:25;101693.03;;;30.99;36.00
48848;BME280;36611;51.638;5.784;2023-06-22T04:16:52;101691.13;;;30.99;36.04
48848;BME280;36611;51.638;5.784;2023-06-22T04:19:18;101683.88;;;30.98;36.31
48848;BME280;36611;51.638;5.784;2023-06-22T04:21:45;101681.09;;;30.98;35.94
48848;BME280;36611;51.638;5.784;2023-06-22T04:24:13;101691.13;;;30.99;36.17
48848;BME280;36611;51.638;5.784;2023-06-22T04:26:40;101697.72;;;30.98;36.11
48848;BME280;36611;51.638;5.784;2023-06-22T04:29:08;101683.88;;;30.98;36.33
48848;BME280;36611;51.638;5.784;2023-06-22T04:31:35;101690.25;;;30.99;36.09
48848;BME280;36611;51.638;5.784;2023-06-22T04:34:06;101692.19;;;30.98;36.32
48848;BME280;36611;51.638;5.784;2023-06-22T04:36:38;101693.25;;;30.97;36.37
48848;BME280;36611;51.638;5.784;2023-06-22T04:39:11;101696.03;;;30.97;36.36
48848;BME280;36611;51.638;5.784;2023-06-22T04:41:39;101679.38;;;30.97;36.36
48848;BME280;36611;51.638;5.784;2023-06-22T04:44:10;101680.47;;;30.96;36.17
48848;BME280;36611;51.638;5.784;2023-06-22T04:46:37;101681.31;;;30.97;36.31
48848;BME280;36611;51.638;5.784;2023-06-22T04:49:08;101676.63;;;30.97;36.11
48848;BME280;36611;51.638;5.784;2023-06-22T04:51:40;101677.69;;;30.96;36.44
48848;BME280;36611;51.638;5.784;2023-06-22T04:54:09;101678.53;;;30.97;36.42
48848;BME280;36611;51.638;5.784;2023-06-22T04:56:35;101679.63;;;30.96;36.15
48848;BME280;36611;51.638;5.784;2023-06-22T04:59:02;101684.09;;;30.97;36.08
48848;BME280;36611;51.638;5.784;2023-06-22T05:01:29;101683.25;;;30.96;36.28
48848;BME280;36611;51.638;5.784;2023-06-22T05:03:57;101691.56;;;30.96;36.51
48848;BME280;36611;51.638;5.784;2023-06-22T05:06:28;101689.63;;;30.97;36.42
48848;BME280;36611;51.638;5.784;2023-06-22T05:08:55;101694.34;;;30.96;36.26
48848;BME280;36611;51.638;5.784;2023-06-22T05:11:28;101680.47;;;30.96;36.51
48848;BME280;36611;51.638;5.784;2023-06-22T05:13:55;101689.63;;;30.97;36.46
48848;BME280;36611;51.638;5.784;2023-06-22T05:16:22;101688.78;;;30.96;36.27
48848;BME280;36611;51.638;5.784;2023-06-22T05:18:54;101688.78;;;30.96;36.51
48848;BME280;36611;51.638;5.784;2023-06-22T05:21:23;101685.16;;;30.96;36.30
48848;BME280;36611;51.638;5.784;2023-06-22T05:23:51;101694.34;;;30.96;36.26
48848;BME280;36611;51.638;5.784;2023-06-22T05:26:19;101690.72;;;30.96;36.29
48848;BME280;36611;51.638;5.784;2023-06-22T05:28:47;101687.09;;;30.95;36.38
48848;BME280;36611;51.638;5.784;2023-06-22T05:31:15;101695.41;;;30.95;36.20
48848;BME280;36611;51.638;5.784;2023-06-22T05:33:43;101699.88;;;30.96;36.29
48848;BME280;36611;51.638;5.784;2023-06-22T05:36:12;101701.81;;;30.96;36.42
48848;BME280;36611;51.638;5.784;2023-06-22T05:38:40;101703.72;;;30.95;36.04
48848;BME280;36611;51.638;5.784;2023-06-22T05:41:07;101705.44;;;30.96;36.34
48848;BME280;36611;51.638;5.784;2023-06-22T05:43:34;101709.28;;;30.95;36.40
48848;BME280;36611;51.638;5.784;2023-06-22T05:46:01;101708.22;;;30.96;36.44
48848;BME280;36611;51.638;5.784;2023-06-22T05:48:28;101696.25;;;30.96;36.16
48848;BME280;36611;51.638;5.784;2023-06-22T05:50:54;101698.19;;;30.95;36.11
48848;BME280;36611;51.638;5.784;2023-06-22T05:53:22;101695.19;;;30.97;36.50
48848;BME280;36611;51.638;5.784;2023-06-22T05:55:48;101695.41;;;30.95;36.37
48848;BME280;36611;51.638;5.784;2023-06-22T05:58:15;101699.88;;;30.96;36.43
48848;BME280;36611;51.638;5.784;2023-06-22T06:00:42;101698.19;;;30.95;36.44
48848;BME280;36611;51.638;5.784;2023-06-22T06:03:10;101703.50;;;30.97;36.14
48848;BME280;36611;51.638;5.784;2023-06-22T06:05:40;101700.97;;;30.95;36.34
48848;BME280;36611;51.638;5.784;2023-06-22T06:08:07;101709.28;;;30.95;36.29
48848;BME280;36611;51.638;5.784;2023-06-22T06:10:33;101706.50;;;30.95;36.42
48848;BME280;36611;51.638;5.784;2023-06-22T06:13:01;101700.97;;;30.95;36.32
48848;BME280;36611;51.638;5.784;2023-06-22T06:15:47;101699.88;;;30.96;36.33
48848;BME280;36611;51.638;5.784;2023-06-22T06:18:21;101693.72;;;30.94;36.12
48848;BME280;36611;51.638;5.784;2023-06-22T06:20:47;101693.72;;;30.94;36.30
48848;BME280;36611;51.638;5.784;2023-06-22T06:23:14;101685.38;;;30.94;36.40
48848;BME280;36611;51.638;5.784;2023-06-22T06:25:41;101697.34;;;30.95;36.23
48848;BME280;36611;51.638;5.784;2023-06-22T06:28:07;101689.00;;;30.95;36.61
48848;BME280;36611;51.638;5.784;2023-06-22T06:30:34;101683.47;;;30.95;36.27
48848;BME280;36611;51.638;5.784;2023-06-22T06:33:03;101690.94;;;30.94;36.47
48848;BME280;36611;51.638;5.784;2023-06-22T06:35:35;101683.47;;;30.95;36.26
48848;BME280;36611;51.638;5.784;2023-06-22T06:38:02;101687.09;;;30.95;36.10
48848;BME280;36611;51.638;5.784;2023-06-22T06:40:29;101687.09;;;30.95;36.39
48848;BME280;36611;51.638;5.784;2023-06-22T06:42:57;101685.16;;;30.96;36.30
48848;BME280;36611;51.638;5.784;2023-06-22T06:45:24;101682.38;;;30.96;36.24
48848;BME280;36611;51.638;5.784;2023-06-22T06:47:51;101684.09;;;30.97;36.49
48848;BME280;36611;51.638;5.784;2023-06-22T06:50:19;101684.31;;;30.95;36.28
48848;BME280;36611;51.638;5.784;2023-06-22T06:52:46;101678.75;;;30.95;36.49
48848;BME280;36611;51.638;5.784;2023-06-22T06:55:13;101683.47;;;30.95;36.67
48848;BME280;36611;51.638;5.784;2023-06-22T06:57:41;101678.75;;;30.95;36.50
48848;BME280;36611;51.638;5.784;2023-06-22T07:00:10;101679.63;;;30.96;36.54
48848;BME280;36611;51.638;5.784;2023-06-22T07:02:42;101676.00;;;30.95;36.46
48848;BME280;36611;51.638;5.784;2023-06-22T07:05:10;101671.50;;;30.94;36.62
48848;BME280;36611;51.638;5.784;2023-06-22T07:07:38;101669.59;;;30.95;36.13
48848;BME280;36611;51.638;5.784;2023-06-22T07:10:05;101668.53;;;30.96;36.39
48848;BME280;36611;51.638;5.784;2023-06-22T07:12:33;101666.81;;;30.95;36.51
48848;BME280;36611;51.638;5.784;2023-06-22T07:15:04;101663.81;;;30.96;36.57
48848;BME280;36611;51.638;5.784;2023-06-22T07:17:31;101661.28;;;30.95;36.56
48848;BME280;36611;51.638;5.784;2023-06-22T07:19:58;101656.78;;;30.94;36.56
48848;BME280;36611;51.638;5.784;2023-06-22T07:22:25;101656.56;;;30.95;36.68
48848;BME280;36611;51.638;5.784;2023-06-22T07:24:51;101655.72;;;30.95;36.55
48848;BME280;36611;51.638;5.784;2023-06-22T07:27:18;101649.31;;;30.94;36.71
48848;BME280;36611;51.638;5.784;2023-06-22T07:29:46;101648.47;;;30.94;36.78
48848;BME280;36611;51.638;5.784;2023-06-22T07:32:12;101649.31;;;30.94;36.46
48848;BME280;36611;51.638;5.784;2023-06-22T07:34:39;101649.31;;;30.94;36.49
48848;BME280;36611;51.638;5.784;2023-06-22T07:37:06;101644.63;;;30.95;36.49
48848;BME280;36611;51.638;5.784;2023-06-22T07:39:32;101649.31;;;30.94;36.61
48848;BME280;36611;51.638;5.784;2023-06-22T07:41:59;101652.09;;;30.94;36.78
48848;BME280;36611;51.638;5.784;2023-06-22T07:44:25;101652.09;;;30.94;36.66
48848;BME280;36611;51.638;5.784;2023-06-22T07:46:52;101646.56;;;30.94;36.69
48848;BME280;36611;51.638;5.784;2023-06-22T07:49:18;101652.94;;;30.95;36.71
48848;BME280;36611;51.638;5.784;2023-06-22T07:51:45;101649.31;;;30.94;36.58
48848;BME280;36611;51.638;5.784;2023-06-22T07:54:11;101641.00;;;30.94;36.43
48848;BME280;36611;51.638;5.784;2023-06-22T07:56:38;101646.56;;;30.94;36.56
48848;BME280;36611;51.638;5.784;2023-06-22T07:59:04;101637.38;;;30.94;36.54
48848;BME280;36611;51.638;5.784;2023-06-22T08:01:31;101629.91;;;30.94;36.74
48848;BME280;36611;51.638;5.784;2023-06-22T08:03:58;101623.28;;;30.95;36.43
48848;BME280;36611;51.638;5.784;2023-06-22T08:06:24;101608.56;;;30.95;36.82
48848;BME280;36611;51.638;5.784;2023-06-22T08:08:51;101597.47;;;30.95;36.85
48848;BME280;36611;51.638;5.784;2023-06-22T08:11:19;101593.84;;;30.94;36.52
48848;BME280;36611;51.638;5.784;2023-06-22T08:13:46;101599.38;;;30.94;36.69
48848;BME280;36611;51.638;5.784;2023-06-22T08:16:12;101593.84;;;30.94;36.82
48848;BME280;36611;51.638;5.784;2023-06-22T08:18:39;101593.84;;;30.94;36.57
48848;BME280;36611;51.638;5.784;2023-06-22T08:21:05;101590.22;;;30.94;36.66
48848;BME280;36611;51.638;5.784;2023-06-22T08:23:32;101582.75;;;30.94;36.62
48848;BME280;36611;51.638;5.784;2023-06-22T08:25:58;101591.06;;;30.94;36.78
48848;BME280;36611;51.638;5.784;2023-06-22T08:28:25;101584.44;;;30.95;36.83
48848;BME280;36611;51.638;5.784;2023-06-22T08:30:52;101582.75;;;30.94;36.80
48848;BME280;36611;51.638;5.784;2023-06-22T08:33:18;101574.44;;;30.94;37.05
48848;BME280;36611;51.638;5.784;2023-06-22T08:35:58;101571.66;;;30.94;36.73
48848;BME280;36611;51.638;5.784;2023-06-22T08:38:25;101576.34;;;30.94;36.72
48848;BME280;36611;51.638;5.784;2023-06-22T08:40:51;101568.03;;;30.94;36.82
48848;BME280;36611;51.638;5.784;2023-06-22T08:43:18;101579.97;;;30.94;37.16
48848;BME280;36611;51.638;5.784;2023-06-22T08:45:45;101570.81;;;30.94;36.88
48848;BME280;36611;51.638;5.784;2023-06-22T08:48:12;101562.25;;;30.95;37.21
48848;BME280;36611;51.638;5.784;2023-06-22T08:50:38;101561.19;;;30.96;37.28
48848;BME280;36611;51.638;5.784;2023-06-22T08:53:07;101559.47;;;30.95;37.12
48848;BME280;36611;51.638;5.784;2023-06-22T08:55:33;101560.31;;;30.96;37.40
48848;BME280;36611;51.638;5.784;2023-06-22T08:58:00;101561.19;;;30.96;37.61
48848;BME280;36611;51.638;5.784;2023-06-22T09:00:27;101557.31;;;30.97;37.61
48848;BME280;36611;51.638;5.784;2023-06-22T09:02:55;101558.41;;;30.96;37.61
48848;BME280;36611;51.638;5.784;2023-06-22T09:05:25;101542.59;;;30.97;37.69
48848;BME280;36611;51.638;5.784;2023-06-22T09:08:08;101543.47;;;30.97;37.67
48848;BME280;36611;51.638;5.784;2023-06-22T09:10:45;101546.47;;;30.96;37.60
48848;BME280;36611;51.638;5.784;2023-06-22T09:13:11;101552.84;;;30.96;37.75
48848;BME280;36611;51.638;5.784;2023-06-22T09:15:38;101547.31;;;30.96;38.05
48848;BME280;36611;51.638;5.784;2023-06-22T09:18:04;101544.53;;;30.96;37.89
48848;BME280;36611;51.638;5.784;2023-06-22T09:20:31;101547.31;;;30.96;37.84
48848;BME280;36611;51.638;5.784;2023-06-22T09:22:58;101550.09;;;30.96;38.22
48848;BME280;36611;51.638;5.784;2023-06-22T09:25:24;101548.16;;;30.97;37.95
48848;BME280;36611;51.638;5.784;2023-06-22T09:27:51;101547.31;;;30.96;38.31
48848;BME280;36611;51.638;5.784;2023-06-22T09:30:17;101541.75;;;30.96;38.17
48848;BME280;36611;51.638;5.784;2023-06-22T09:32:44;101536.22;;;30.96;38.01
48848;BME280;36611;51.638;5.784;2023-06-22T09:35:11;101547.31;;;30.96;37.97
48848;BME280;36611;51.638;5.784;2023-06-22T09:37:40;101547.31;;;30.96;37.85
48848;BME280;36611;51.638;5.784;2023-06-22T09:40:07;101544.53;;;30.96;38.18
48848;BME280;36611;51.638;5.784;2023-06-22T09:42:36;101543.69;;;30.96;38.11
48848;BME280;36611;51.638;5.784;2023-06-22T09:45:03;101547.53;;;30.95;38.07
48848;BME280;36611;51.638;5.784;2023-06-22T09:47:30;101544.75;;;30.95;38.19
48848;BME280;36611;51.638;5.784;2023-06-22T09:49:57;101546.69;;;30.94;38.15
48848;BME280;36611;51.638;5.784;2023-06-22T09:52:26;101544.75;;;30.95;38.09
48848;BME280;36611;51.638;5.784;2023-06-22T09:55:08;101541.13;;;30.94;38.07
48848;BME280;36611;51.638;5.784;2023-06-22T09:57:35;101543.91;;;30.94;38.18
48848;BME280;36611;51.638;5.784;2023-06-22T10:00:02;101533.66;;;30.95;37.98
48848;BME280;36611;51.638;5.784;2023-06-22T10:02:32;101542.00;;;30.95;38.14
48848;BME280;36611;51.638;5.784;2023-06-22T10:04:58;101537.50;;;30.94;37.93
48848;BME280;36611;51.638;5.784;2023-06-22T10:07:26;101538.38;;;30.94;38.13
48848;BME280;36611;51.638;5.784;2023-06-22T10:09:52;101538.38;;;30.94;38.07
48848;BME280;36611;51.638;5.784;2023-06-22T10:12:19;101543.06;;;30.94;38.13
48848;BME280;36611;51.638;5.784;2023-06-22T10:14:45;101537.50;;;30.94;38.37
48848;BME280;36611;51.638;5.784;2023-06-22T10:17:12;101540.28;;;30.94;37.97
48848;BME280;36611;51.638;5.784;2023-06-22T10:19:39;101536.66;;;30.93;38.07
48848;BME280;36611;51.638;5.784;2023-06-22T10:22:07;101531.13;;;30.93;37.98
48848;BME280;36611;51.638;5.784;2023-06-22T10:24:34;101528.34;;;30.93;38.21
48848;BME280;36611;51.638;5.784;2023-06-22T10:27:00;101520.03;;;30.93;37.97
48848;BME280;36611;51.638;5.784;2023-06-22T10:29:27;101521.94;;;30.93;38.27
48848;BME280;36611;51.638;5.784;2023-06-22T10:31:54;101515.31;;;30.94;37.95
48848;BME280;36611;51.638;5.784;2023-06-22T10:34:20;101508.06;;;30.93;38.08
48848;BME280;36611;51.638;5.784;2023-06-22T10:36:47;101508.06;;;30.93;38.26
48848;BME280;36611;51.638;5.784;2023-06-22T10:39:15;101508.06;;;30.93;37.97
48848;BME280;36611;51.638;5.784;2023-06-22T10:41:42;101510.84;;;30.93;38.03
48848;BME280;36611;51.638;5.784;2023-06-22T10:44:08;101502.53;;;30.93;37.93
48848;BME280;36611;51.638;5.784;2023-06-22T10:46:35;101508.94;;;30.93;38.12
48848;BME280;36611;51.638;5.784;2023-06-22T10:49:02;101517.25;;;30.93;37.89
48848;BME280;36611;51.638;5.784;2023-06-22T10:51:28;101510.00;;;30.92;37.99
48848;BME280;36611;51.638;5.784;2023-06-22T10:53:55;101504.47;;;30.92;38.18
48848;BME280;36611;51.638;5.784;2023-06-22T10:56:21;101512.78;;;30.92;37.99
48848;BME280;36611;51.638;5.784;2023-06-22T10:58:48;101513.63;;;30.93;37.63
48848;BME280;36611;51.638;5.784;2023-06-22T11:01:14;101523.03;;;30.92;37.96
48848;BME280;36611;51.638;5.784;2023-06-22T11:04:00;101536.03;;;30.91;37.85
48848;BME280;36611;51.638;5.784;2023-06-22T11:06:27;101544.38;;;30.91;38.19
48848;BME280;36611;51.638;5.784;2023-06-22T11:08:54;101555.47;;;30.91;37.97
48848;BME280;36611;51.638;5.784;2023-06-22T11:11:32;101557.38;;;30.91;38.13
48848;BME280;36611;51.638;5.784;2023-06-22T11:13:59;101559.31;;;30.90;38.08
48848;BME280;36611;51.638;5.784;2023-06-22T11:16:26;101563.78;;;30.91;37.80
48848;BME280;36611;51.638;5.784;2023-06-22T11:18:52;101569.31;;;30.91;38.01
48848;BME280;36611;51.638;5.784;2023-06-22T11:21:19;101568.47;;;30.91;38.05
48848;BME280;36611;51.638;5.784;2023-06-22T11:23:45;101564.84;;;30.90;38.17
48848;BME280;36611;51.638;5.784;2023-06-22T11:26:12;101570.41;;;30.90;37.98
48848;BME280;36611;51.638;5.784;2023-06-22T11:28:39;101570.41;;;30.90;37.80
48848;BME280;36611;51.638;5.784;2023-06-22T11:31:05;101581.50;;;30.90;37.92
48848;BME280;36611;51.638;5.784;2023-06-22T11:33:51;101568.72;;;30.89;37.83
48848;BME280;36611;51.638;5.784;2023-06-22T11:36:19;101569.56;;;30.90;37.92
48848;BME280;36611;51.638;5.784;2023-06-22T11:38:46;101568.72;;;30.89;37.87
48848;BME280;36611;51.638;5.784;2023-06-22T11:41:12;101574.25;;;30.89;37.74
48848;BME280;36611;51.638;5.784;2023-06-22T11:43:39;101573.41;;;30.89;37.88
48848;BME280;36611;51.638;5.784;2023-06-22T11:46:05;101565.94;;;30.89;37.69
48848;BME280;36611;51.638;5.784;2023-06-22T11:48:32;101562.31;;;30.89;38.15
48848;BME280;36611;51.638;5.784;2023-06-22T11:50:59;101571.72;;;30.88;37.99
48848;BME280;36611;51.638;5.784;2023-06-22T11:53:26;101573.41;;;30.89;38.07
48848;BME280;36611;51.638;5.784;2023-06-22T11:55:53;101581.72;;;30.89;38.26
48848;BME280;36611;51.638;5.784;2023-06-22T11:58:21;101573.63;;;30.87;38.08
48848;BME280;36611;51.638;5.784;2023-06-22T12:00:48;101561.47;;;30.88;38.08
48848;BME280;36611;51.638;5.784;2023-06-22T12:03:18;101552.50;;;30.86;37.72
48848;BME280;36611;51.638;5.784;2023-06-22T12:05:46;101540.34;;;30.87;38.06
48848;BME280;36611;51.638;5.784;2023-06-22T12:08:13;101516.47;;;30.86;37.86
48848;BME280;36611;51.638;5.784;2023-06-22T12:10:40;101512.59;;;30.87;37.88
48848;BME280;36611;51.638;5.784;2023-06-22T12:13:06;101485.94;;;30.86;37.87
48848;BME280;36611;51.638;5.784;2023-06-22T12:15:33;101464.59;;;30.87;37.82
48848;BME280;36611;51.638;5.784;2023-06-22T12:18:00;101451.81;;;30.86;37.95
48848;BME280;36611;51.638;5.784;2023-06-22T12:20:28;101472.09;;;30.86;38.34
48848;BME280;36611;51.638;5.784;2023-06-22T12:22:55;101477.63;;;30.86;37.96
48848;BME280;36611;51.638;5.784;2023-06-22T12:25:24;101488.72;;;30.86;38.01
48848;BME280;36611;51.638;5.784;2023-06-22T12:27:51;101472.09;;;30.86;37.87
48848;BME280;36611;51.638;5.784;2023-06-22T12:30:17;101481.25;;;30.87;37.92
48848;BME280;36611;51.638;5.784;2023-06-22T12:32:44;101475.69;;;30.87;37.87
48848;BME280;36611;51.638;5.784;2023-06-22T12:35:10;101474.84;;;30.86;37.90
48848;BME280;36611;51.638;5.784;2023-06-22T12:37:43;101467.38;;;30.87;38.17
48848;BME280;36611;51.638;5.784;2023-06-22T12:40:10;101464.59;;;30.87;38.08
48848;BME280;36611;51.638;5.784;2023-06-22T12:42:37;101469.31;;;30.86;37.76
48848;BME280;36611;51.638;5.784;2023-06-22T12:45:04;101466.53;;;30.86;37.68
48848;BME280;36611;51.638;5.784;2023-06-22T12:47:31;101462.06;;;30.85;38.17
48848;BME280;36611;51.638;5.784;2023-06-22T12:49:58;101462.06;;;30.85;38.09
48848;BME280;36611;51.638;5.784;2023-06-22T12:52:24;101455.44;;;30.86;37.98
48848;BME280;36611;51.638;5.784;2023-06-22T12:54:51;101453.75;;;30.85;37.72
48848;BME280;36611;51.638;5.784;2023-06-22T12:57:21;101447.34;;;30.85;37.70
48848;BME280;36611;51.638;5.784;2023-06-22T12:59:48;101443.50;;;30.86;37.96
48848;BME280;36611;51.638;5.784;2023-06-22T13:02:14;101429.84;;;30.84;37.88